sensor_id;sensor_type;location;lat;lon;timestamp;temperature;humidity
15133;DHT22;7667;51.232;17.110;2024-02-28T00:16:17;6.00;99.90
15133;DHT22;7667;51.232;17.110;2024-02-28T00:18:45;6.00;99.90
15133;DHT22;7667;51.232;17.110;2024-02-28T00:21:13;6.10;99.90
15133;DHT22;7667;51.232;17.110;2024-02-28T00:26:10;6.00;99.90
15133;DHT22;7667;51.232;17.110;2024-02-28T00:33:35;6.10;99.90
15133;DHT22;7667;51.232;17.110;2024-02-28T00:50:50;6.10;99.90
15133;DHT22;7667;51.232;17.110;2024-02-28T00:53:19;6.20;99.90
15133;DHT22;7667;51.232;17.110;2024-02-28T00:55:47;6.10;99.90
15133;DHT22;7667;51.232;17.110;2024-02-28T00:58:15;6.10;99.90
15133;DHT22;7667;51.232;17.110;2024-02-28T01:05:42;6.20;99.90
15133;DHT22;7667;51.232;17.110;2024-02-28T01:08:10;6.20;99.90
15133;DHT22;7667;51.232;17.110;2024-02-28T01:10:38;6.10;99.90
15133;DHT22;7667;51.232;17.110;2024-02-28T01:13:05;6.00;99.90
15133;DHT22;7667;51.232;17.110;2024-02-28T01:15:33;6.20;99.90
15133;DHT22;7667;51.232;17.110;2024-02-28T01:18:01;6.30;99.90
15133;DHT22;7667;51.232;17.110;2024-02-28T01:20:28;6.30;99.90
15133;DHT22;7667;51.232;17.110;2024-02-28T01:22:56;6.30;99.90
15133;DHT22;7667;51.232;17.110;2024-02-28T01:25:23;6.30;99.90
15133;DHT22;7667;51.232;17.110;2024-02-28T01:27:51;6.30;99.90
15133;DHT22;7667;51.232;17.110;2024-02-28T01:30:18;6.30;99.90
15133;DHT22;7667;51.232;17.110;2024-02-28T01:32:46;6.20;99.90
15133;DHT22;7667;51.232;17.110;2024-02-28T01:35:14;6.20;99.90
15133;DHT22;7667;51.232;17.110;2024-02-28T01:37:42;6.30;99.90
15133;DHT22;7667;51.232;17.110;2024-02-28T01:40:10;6.30;99.90
15133;DHT22;7667;51.232;17.110;2024-02-28T01:42:38;6.30;99.90
15133;DHT22;7667;51.232;17.110;2024-02-28T01:45:06;6.20;99.90
15133;DHT22;7667;51.232;17.110;2024-02-28T01:47:36;6.20;99.90
15133;DHT22;7667;51.232;17.110;2024-02-28T01:50:05;6.20;99.90
15133;DHT22;7667;51.232;17.110;2024-02-28T01:52:32;6.20;99.90
15133;DHT22;7667;51.232;17.110;2024-02-28T01:55:01;6.20;99.90
15133;DHT22;7667;51.232;17.110;2024-02-28T01:57:29;6.20;99.90
15133;DHT22;7667;51.232;17.110;2024-02-28T01:59:57;6.10;99.90
15133;DHT22;7667;51.232;17.110;2024-02-28T02:02:25;6.10;99.90
15133;DHT22;7667;51.232;17.110;2024-02-28T02:04:52;6.20;99.90
15133;DHT22;7667;51.232;17.110;2024-02-28T02:07:21;6.20;99.90
15133;DHT22;7667;51.232;17.110;2024-02-28T02:09:48;6.20;99.90
15133;DHT22;7667;51.232;17.110;2024-02-28T02:12:17;6.20;99.90
15133;DHT22;7667;51.232;17.110;2024-02-28T02:14:48;6.10;99.90
15133;DHT22;7667;51.232;17.110;2024-02-28T02:17:16;6.10;99.90
15133;DHT22;7667;51.232;17.110;2024-02-28T02:19:43;6.10;99.90
15133;DHT22;7667;51.232;17.110;2024-02-28T02:24:41;6.10;99.90
15133;DHT22;7667;51.232;17.110;2024-02-28T02:27:09;6.10;99.90
15133;DHT22;7667;51.232;17.110;2024-02-28T02:29:37;6.10;99.90
15133;DHT22;7667;51.232;17.110;2024-02-28T02:32:05;6.00;99.90
15133;DHT22;7667;51.232;17.110;2024-02-28T02:34:32;6.10;99.90
15133;DHT22;7667;51.232;17.110;2024-02-28T02:37:01;6.20;99.90
15133;DHT22;7667;51.232;17.110;2024-02-28T02:39:28;6.20;99.90
15133;DHT22;7667;51.232;17.110;2024-02-28T02:41:56;6.20;99.90
15133;DHT22;7667;51.232;17.110;2024-02-28T03:11:33;6.00;99.90
15133;DHT22;7667;51.232;17.110;2024-02-28T03:14:05;6.10;99.90
15133;DHT22;7667;51.232;17.110;2024-02-28T03:16:32;6.00;99.90
15133;DHT22;7667;51.232;17.110;2024-02-28T03:19:04;6.00;99.90
15133;DHT22;7667;51.232;17.110;2024-02-28T03:21:32;6.00;99.90
15133;DHT22;7667;51.232;17.110;2024-02-28T03:24:00;6.10;99.90
15133;DHT22;7667;51.232;17.110;2024-02-28T03:26:28;6.10;99.90
15133;DHT22;7667;51.232;17.110;2024-02-28T03:33:51;6.10;99.90
15133;DHT22;7667;51.232;17.110;2024-02-28T03:36:19;6.10;99.90
15133;DHT22;7667;51.232;17.110;2024-02-28T03:41:14;6.10;99.90
15133;DHT22;7667;51.232;17.110;2024-02-28T03:43:42;6.10;99.90
15133;DHT22;7667;51.232;17.110;2024-02-28T03:46:10;6.10;99.90
15133;DHT22;7667;51.232;17.110;2024-02-28T03:48:37;6.10;99.90
15133;DHT22;7667;51.232;17.110;2024-02-28T03:51:05;6.00;99.90
15133;DHT22;7667;51.232;17.110;2024-02-28T03:53:33;6.00;99.90
15133;DHT22;7667;51.232;17.110;2024-02-28T03:56:00;6.00;99.90
15133;DHT22;7667;51.232;17.110;2024-02-28T03:58:28;6.00;99.90
15133;DHT22;7667;51.232;17.110;2024-02-28T04:00:56;6.00;99.90
15133;DHT22;7667;51.232;17.110;2024-02-28T04:03:23;6.00;99.90
15133;DHT22;7667;51.232;17.110;2024-02-28T04:05:51;6.00;99.90
15133;DHT22;7667;51.232;17.110;2024-02-28T04:08:18;6.00;99.90
15133;DHT22;7667;51.232;17.110;2024-02-28T04:10:46;5.90;99.90
15133;DHT22;7667;51.232;17.110;2024-02-28T04:13:14;5.90;99.90
15133;DHT22;7667;51.232;17.110;2024-02-28T04:15:41;5.90;99.90
15133;DHT22;7667;51.232;17.110;2024-02-28T04:18:09;5.90;99.90
15133;DHT22;7667;51.232;17.110;2024-02-28T04:20:36;5.90;99.90
15133;DHT22;7667;51.232;17.110;2024-02-28T04:23:05;5.90;99.90
15133;DHT22;7667;51.232;17.110;2024-02-28T04:25:33;5.90;99.90
15133;DHT22;7667;51.232;17.110;2024-02-28T04:28:02;5.90;99.90
15133;DHT22;7667;51.232;17.110;2024-02-28T04:30:30;5.90;99.90
15133;DHT22;7667;51.232;17.110;2024-02-28T04:32:57;5.90;99.90
15133;DHT22;7667;51.232;17.110;2024-02-28T04:35:25;5.90;99.90
15133;DHT22;7667;51.232;17.110;2024-02-28T04:37:53;5.90;99.90
15133;DHT22;7667;51.232;17.110;2024-02-28T04:40:20;5.90;99.90
15133;DHT22;7667;51.232;17.110;2024-02-28T04:42:48;5.90;99.90
15133;DHT22;7667;51.232;17.110;2024-02-28T04:45:15;5.90;99.90
15133;DHT22;7667;51.232;17.110;2024-02-28T04:47:43;5.90;99.90
15133;DHT22;7667;51.232;17.110;2024-02-28T04:50:11;5.90;99.90
15133;DHT22;7667;51.232;17.110;2024-02-28T04:52:39;5.90;99.90
15133;DHT22;7667;51.232;17.110;2024-02-28T04:55:07;5.90;99.90
15133;DHT22;7667;51.232;17.110;2024-02-28T04:57:35;5.90;99.90
15133;DHT22;7667;51.232;17.110;2024-02-28T05:00:03;6.00;99.90
15133;DHT22;7667;51.232;17.110;2024-02-28T05:02:31;6.00;99.90
15133;DHT22;7667;51.232;17.110;2024-02-28T05:04:58;6.00;99.90
15133;DHT22;7667;51.232;17.110;2024-02-28T05:07:26;6.00;99.90
15133;DHT22;7667;51.232;17.110;2024-02-28T05:09:54;6.00;99.90
15133;DHT22;7667;51.232;17.110;2024-02-28T05:12:21;6.00;99.90
15133;DHT22;7667;51.232;17.110;2024-02-28T05:14:49;6.00;99.90
15133;DHT22;7667;51.232;17.110;2024-02-28T05:17:20;6.10;99.90
15133;DHT22;7667;51.232;17.110;2024-02-28T05:19:48;6.10;99.90
15133;DHT22;7667;51.232;17.110;2024-02-28T05:22:16;6.10;99.90
15133;DHT22;7667;51.232;17.110;2024-02-28T05:24:46;6.10;99.90
15133;DHT22;7667;51.232;17.110;2024-02-28T05:27:14;6.10;99.90
15133;DHT22;7667;51.232;17.110;2024-02-28T05:29:41;6.20;99.90
15133;DHT22;7667;51.232;17.110;2024-02-28T05:32:10;6.20;99.90
15133;DHT22;7667;51.232;17.110;2024-02-28T05:34:37;6.20;99.90
15133;DHT22;7667;51.232;17.110;2024-02-28T05:37:05;6.10;99.90
15133;DHT22;7667;51.232;17.110;2024-02-28T05:39:33;6.20;99.90
15133;DHT22;7667;51.232;17.110;2024-02-28T05:42:01;6.20;99.90
15133;DHT22;7667;51.232;17.110;2024-02-28T05:44:29;6.20;99.90
15133;DHT22;7667;51.232;17.110;2024-02-28T05:46:57;6.20;99.90
15133;DHT22;7667;51.232;17.110;2024-02-28T05:49:24;6.10;99.90
15133;DHT22;7667;51.232;17.110;2024-02-28T05:51:52;6.20;99.90
15133;DHT22;7667;51.232;17.110;2024-02-28T05:54:21;6.20;99.90
15133;DHT22;7667;51.232;17.110;2024-02-28T05:56:48;6.20;99.90
15133;DHT22;7667;51.232;17.110;2024-02-28T05:59:16;6.20;99.90
15133;DHT22;7667;51.232;17.110;2024-02-28T06:01:44;6.20;99.90
15133;DHT22;7667;51.232;17.110;2024-02-28T06:04:12;6.20;99.90
15133;DHT22;7667;51.232;17.110;2024-02-28T06:06:40;6.20;99.90
15133;DHT22;7667;51.232;17.110;2024-02-28T06:09:07;6.30;99.90
15133;DHT22;7667;51.232;17.110;2024-02-28T06:11:35;6.30;99.90
15133;DHT22;7667;51.232;17.110;2024-02-28T06:14:03;6.30;99.90
15133;DHT22;7667;51.232;17.110;2024-02-28T06:16:31;6.30;99.90
15133;DHT22;7667;51.232;17.110;2024-02-28T06:18:59;6.30;99.90
15133;DHT22;7667;51.232;17.110;2024-02-28T06:21:31;6.30;99.90
15133;DHT22;7667;51.232;17.110;2024-02-28T06:24:00;6.30;99.90
15133;DHT22;7667;51.232;17.110;2024-02-28T06:26:27;6.40;99.90
15133;DHT22;7667;51.232;17.110;2024-02-28T06:28:55;6.40;99.90
15133;DHT22;7667;51.232;17.110;2024-02-28T06:31:28;6.40;99.90
15133;DHT22;7667;51.232;17.110;2024-02-28T06:33:58;6.40;99.90
15133;DHT22;7667;51.232;17.110;2024-02-28T06:36:26;6.40;99.90
15133;DHT22;7667;51.232;17.110;2024-02-28T06:38:54;6.40;99.90
15133;DHT22;7667;51.232;17.110;2024-02-28T06:41:22;6.50;99.90
15133;DHT22;7667;51.232;17.110;2024-02-28T06:43:50;6.50;99.90
15133;DHT22;7667;51.232;17.110;2024-02-28T06:46:17;6.60;99.90
15133;DHT22;7667;51.232;17.110;2024-02-28T06:48:45;6.60;99.90
15133;DHT22;7667;51.232;17.110;2024-02-28T06:51:13;6.60;99.90
15133;DHT22;7667;51.232;17.110;2024-02-28T06:53:44;6.70;99.90
15133;DHT22;7667;51.232;17.110;2024-02-28T06:56:11;6.70;99.90
15133;DHT22;7667;51.232;17.110;2024-02-28T06:58:39;6.80;99.90
15133;DHT22;7667;51.232;17.110;2024-02-28T07:01:06;6.80;99.90
15133;DHT22;7667;51.232;17.110;2024-02-28T07:03:34;6.80;99.90
15133;DHT22;7667;51.232;17.110;2024-02-28T07:06:02;6.80;99.90
15133;DHT22;7667;51.232;17.110;2024-02-28T07:08:32;6.80;99.90
15133;DHT22;7667;51.232;17.110;2024-02-28T07:10:59;6.90;99.90
15133;DHT22;7667;51.232;17.110;2024-02-28T07:13:29;6.90;99.90
15133;DHT22;7667;51.232;17.110;2024-02-28T07:15:57;7.00;99.90
15133;DHT22;7667;51.232;17.110;2024-02-28T07:18:25;7.00;99.90
15133;DHT22;7667;51.232;17.110;2024-02-28T07:20:53;7.00;99.90
15133;DHT22;7667;51.232;17.110;2024-02-28T07:23:20;7.00;99.90
15133;DHT22;7667;51.232;17.110;2024-02-28T07:25:48;7.00;99.90
15133;DHT22;7667;51.232;17.110;2024-02-28T07:28:15;7.00;99.90
15133;DHT22;7667;51.232;17.110;2024-02-28T07:30:43;7.00;99.90
15133;DHT22;7667;51.232;17.110;2024-02-28T07:33:13;7.00;99.90
15133;DHT22;7667;51.232;17.110;2024-02-28T07:35:48;7.00;99.90
15133;DHT22;7667;51.232;17.110;2024-02-28T07:38:16;7.00;99.90
15133;DHT22;7667;51.232;17.110;2024-02-28T07:40:48;7.00;99.90
15133;DHT22;7667;51.232;17.110;2024-02-28T07:43:16;7.00;99.90
15133;DHT22;7667;51.232;17.110;2024-02-28T07:45:43;7.00;99.90
15133;DHT22;7667;51.232;17.110;2024-02-28T07:48:11;7.00;99.90
15133;DHT22;7667;51.232;17.110;2024-02-28T07:50:39;7.00;99.90
15133;DHT22;7667;51.232;17.110;2024-02-28T07:53:09;7.00;99.90
15133;DHT22;7667;51.232;17.110;2024-02-28T07:55:36;7.10;99.90
15133;DHT22;7667;51.232;17.110;2024-02-28T07:58:04;7.10;99.90
15133;DHT22;7667;51.232;17.110;2024-02-28T08:00:33;7.10;99.90
15133;DHT22;7667;51.232;17.110;2024-02-28T08:03:03;7.10;99.90
15133;DHT22;7667;51.232;17.110;2024-02-28T08:05:30;7.10;99.90
15133;DHT22;7667;51.232;17.110;2024-02-28T08:08:00;7.10;99.90
15133;DHT22;7667;51.232;17.110;2024-02-28T08:10:28;7.20;99.90
15133;DHT22;7667;51.232;17.110;2024-02-28T08:12:56;7.20;99.90
15133;DHT22;7667;51.232;17.110;2024-02-28T08:15:23;7.20;99.90
15133;DHT22;7667;51.232;17.110;2024-02-28T08:17:51;7.20;99.90
15133;DHT22;7667;51.232;17.110;2024-02-28T08:20:19;7.30;99.90
15133;DHT22;7667;51.232;17.110;2024-02-28T08:22:47;7.30;99.90
15133;DHT22;7667;51.232;17.110;2024-02-28T08:25:15;7.30;99.90
15133;DHT22;7667;51.232;17.110;2024-02-28T08:27:43;7.30;99.90
15133;DHT22;7667;51.232;17.110;2024-02-28T08:30:11;7.30;99.90
15133;DHT22;7667;51.232;17.110;2024-02-28T08:32:40;7.20;99.90
15133;DHT22;7667;51.232;17.110;2024-02-28T08:35:08;7.20;99.90
15133;DHT22;7667;51.232;17.110;2024-02-28T08:37:40;7.30;99.90
15133;DHT22;7667;51.232;17.110;2024-02-28T08:40:08;7.20;99.90
15133;DHT22;7667;51.232;17.110;2024-02-28T08:42:36;7.30;99.90
15133;DHT22;7667;51.232;17.110;2024-02-28T08:45:05;7.40;99.90
15133;DHT22;7667;51.232;17.110;2024-02-28T08:47:33;7.40;99.90
15133;DHT22;7667;51.232;17.110;2024-02-28T08:50:01;7.40;99.90
15133;DHT22;7667;51.232;17.110;2024-02-28T08:52:28;7.40;99.90
15133;DHT22;7667;51.232;17.110;2024-02-28T08:54:56;7.40;99.90
15133;DHT22;7667;51.232;17.110;2024-02-28T08:57:24;7.40;99.90
15133;DHT22;7667;51.232;17.110;2024-02-28T08:59:51;7.40;99.90
15133;DHT22;7667;51.232;17.110;2024-02-28T09:02:20;7.40;99.90
15133;DHT22;7667;51.232;17.110;2024-02-28T09:04:47;7.40;99.90
15133;DHT22;7667;51.232;17.110;2024-02-28T09:07:19;7.40;99.90
15133;DHT22;7667;51.232;17.110;2024-02-28T09:09:46;7.40;99.90
15133;DHT22;7667;51.232;17.110;2024-02-28T09:12:15;7.40;99.90
15133;DHT22;7667;51.232;17.110;2024-02-28T09:14:42;7.30;99.90
15133;DHT22;7667;51.232;17.110;2024-02-28T09:17:12;7.30;99.90
15133;DHT22;7667;51.232;17.110;2024-02-28T09:19:39;7.30;99.90
15133;DHT22;7667;51.232;17.110;2024-02-28T09:22:07;7.30;99.90
15133;DHT22;7667;51.232;17.110;2024-02-28T09:24:37;7.30;99.90
15133;DHT22;7667;51.232;17.110;2024-02-28T09:27:06;7.30;99.90
15133;DHT22;7667;51.232;17.110;2024-02-28T09:29:33;7.30;99.90
15133;DHT22;7667;51.232;17.110;2024-02-28T09:32:01;7.30;99.90
15133;DHT22;7667;51.232;17.110;2024-02-28T09:34:29;7.20;99.90
15133;DHT22;7667;51.232;17.110;2024-02-28T09:36:56;7.10;99.90
15133;DHT22;7667;51.232;17.110;2024-02-28T09:39:24;7.20;99.90
15133;DHT22;7667;51.232;17.110;2024-02-28T09:41:53;7.20;99.90
15133;DHT22;7667;51.232;17.110;2024-02-28T09:44:22;7.20;99.90
15133;DHT22;7667;51.232;17.110;2024-02-28T09:46:51;7.20;99.90
15133;DHT22;7667;51.232;17.110;2024-02-28T09:49:19;7.20;99.90
15133;DHT22;7667;51.232;17.110;2024-02-28T09:51:49;7.10;99.90
15133;DHT22;7667;51.232;17.110;2024-02-28T09:54:18;7.10;99.90
15133;DHT22;7667;51.232;17.110;2024-02-28T09:56:51;7.00;99.90
15133;DHT22;7667;51.232;17.110;2024-02-28T09:59:19;6.90;99.90
15133;DHT22;7667;51.232;17.110;2024-02-28T10:01:58;6.90;99.90
15133;DHT22;7667;51.232;17.110;2024-02-28T10:04:27;6.90;99.90
15133;DHT22;7667;51.232;17.110;2024-02-28T10:06:55;6.90;99.90
15133;DHT22;7667;51.232;17.110;2024-02-28T10:09:23;6.90;99.90
15133;DHT22;7667;51.232;17.110;2024-02-28T10:11:51;7.00;99.90
15133;DHT22;7667;51.232;17.110;2024-02-28T10:14:18;6.90;99.90
15133;DHT22;7667;51.232;17.110;2024-02-28T10:16:46;6.90;99.90
15133;DHT22;7667;51.232;17.110;2024-02-28T10:19:14;6.90;99.90
15133;DHT22;7667;51.232;17.110;2024-02-28T10:21:42;6.90;99.90
15133;DHT22;7667;51.232;17.110;2024-02-28T10:24:12;6.80;99.90
15133;DHT22;7667;51.232;17.110;2024-02-28T10:26:46;6.90;99.90
15133;DHT22;7667;51.232;17.110;2024-02-28T10:29:24;6.90;99.90
15133;DHT22;7667;51.232;17.110;2024-02-28T10:31:52;6.90;99.90
15133;DHT22;7667;51.232;17.110;2024-02-28T10:34:20;6.80;99.90
15133;DHT22;7667;51.232;17.110;2024-02-28T10:36:47;6.80;99.90
15133;DHT22;7667;51.232;17.110;2024-02-28T10:39:16;6.90;99.90
15133;DHT22;7667;51.232;17.110;2024-02-28T10:41:47;6.90;99.90
15133;DHT22;7667;51.232;17.110;2024-02-28T10:44:16;6.80;99.90
15133;DHT22;7667;51.232;17.110;2024-02-28T10:46:44;6.90;99.90
15133;DHT22;7667;51.232;17.110;2024-02-28T10:49:16;6.90;99.90
15133;DHT22;7667;51.232;17.110;2024-02-28T10:51:47;6.90;99.90
15133;DHT22;7667;51.232;17.110;2024-02-28T10:54:16;6.90;99.90
15133;DHT22;7667;51.232;17.110;2024-02-28T10:56:48;6.90;99.90
15133;DHT22;7667;51.232;17.110;2024-02-28T10:59:16;6.80;99.90
15133;DHT22;7667;51.232;17.110;2024-02-28T11:01:44;6.70;99.90
15133;DHT22;7667;51.232;17.110;2024-02-28T11:04:16;6.70;99.90
15133;DHT22;7667;51.232;17.110;2024-02-28T11:06:52;6.80;99.90
15133;DHT22;7667;51.232;17.110;2024-02-28T11:09:28;6.70;99.90
15133;DHT22;7667;51.232;17.110;2024-02-28T11:11:57;6.70;99.90
15133;DHT22;7667;51.232;17.110;2024-02-28T11:14:25;6.60;99.90
15133;DHT22;7667;51.232;17.110;2024-02-28T11:17:04;6.50;99.90
15133;DHT22;7667;51.232;17.110;2024-02-28T11:19:33;6.60;99.90
15133;DHT22;7667;51.232;17.110;2024-02-28T11:22:04;6.70;99.90
15133;DHT22;7667;51.232;17.110;2024-02-28T11:24:34;6.70;99.90
15133;DHT22;7667;51.232;17.110;2024-02-28T11:27:05;6.60;99.90
15133;DHT22;7667;51.232;17.110;2024-02-28T11:29:34;6.70;99.90
15133;DHT22;7667;51.232;17.110;2024-02-28T11:32:01;6.70;99.90
15133;DHT22;7667;51.232;17.110;2024-02-28T11:34:30;6.70;99.90
15133;DHT22;7667;51.232;17.110;2024-02-28T11:36:57;6.80;99.90
15133;DHT22;7667;51.232;17.110;2024-02-28T11:39:26;6.70;99.90
15133;DHT22;7667;51.232;17.110;2024-02-28T11:41:54;6.80;99.90
15133;DHT22;7667;51.232;17.110;2024-02-28T11:44:22;6.80;99.90
15133;DHT22;7667;51.232;17.110;2024-02-28T11:46:50;6.80;99.90
15133;DHT22;7667;51.232;17.110;2024-02-28T11:49:18;6.80;99.90
15133;DHT22;7667;51.232;17.110;2024-02-28T11:51:46;6.90;99.90
15133;DHT22;7667;51.232;17.110;2024-02-28T11:54:14;7.00;99.90
15133;DHT22;7667;51.232;17.110;2024-02-28T11:56:41;6.90;99.90
15133;DHT22;7667;51.232;17.110;2024-02-28T11:59:11;6.80;99.90
15133;DHT22;7667;51.232;17.110;2024-02-28T12:01:43;6.70;99.90
15133;DHT22;7667;51.232;17.110;2024-02-28T12:04:12;6.60;99.90
15133;DHT22;7667;51.232;17.110;2024-02-28T12:06:40;6.60;99.90
15133;DHT22;7667;51.232;17.110;2024-02-28T12:09:10;6.60;99.90
15133;DHT22;7667;51.232;17.110;2024-02-28T12:11:50;6.60;99.90
15133;DHT22;7667;51.232;17.110;2024-02-28T12:14:18;6.50;99.90
15133;DHT22;7667;51.232;17.110;2024-02-28T12:16:48;6.50;99.90
15133;DHT22;7667;51.232;17.110;2024-02-28T12:19:16;6.50;99.90
15133;DHT22;7667;51.232;17.110;2024-02-28T12:21:46;6.40;99.90
15133;DHT22;7667;51.232;17.110;2024-02-28T12:24:13;6.40;99.90
15133;DHT22;7667;51.232;17.110;2024-02-28T12:26:41;6.40;99.90
15133;DHT22;7667;51.232;17.110;2024-02-28T12:29:09;6.40;99.90
15133;DHT22;7667;51.232;17.110;2024-02-28T12:31:38;6.40;99.90
15133;DHT22;7667;51.232;17.110;2024-02-28T12:34:07;6.30;99.90
15133;DHT22;7667;51.232;17.110;2024-02-28T12:36:34;6.40;99.90
15133;DHT22;7667;51.232;17.110;2024-02-28T12:39:02;6.30;99.90
15133;DHT22;7667;51.232;17.110;2024-02-28T12:41:32;6.40;99.90
15133;DHT22;7667;51.232;17.110;2024-02-28T12:44:00;6.40;99.90
15133;DHT22;7667;51.232;17.110;2024-02-28T12:46:28;6.30;99.90
15133;DHT22;7667;51.232;17.110;2024-02-28T12:48:55;6.30;99.90
15133;DHT22;7667;51.232;17.110;2024-02-28T12:51:43;6.30;99.90
15133;DHT22;7667;51.232;17.110;2024-02-28T12:54:13;6.30;99.90
15133;DHT22;7667;51.232;17.110;2024-02-28T12:56:43;6.30;99.90
15133;DHT22;7667;51.232;17.110;2024-02-28T12:59:12;6.30;99.90
15133;DHT22;7667;51.232;17.110;2024-02-28T13:01:40;6.20;99.90
15133;DHT22;7667;51.232;17.110;2024-02-28T13:04:08;6.20;99.90
15133;DHT22;7667;51.232;17.110;2024-02-28T13:06:36;6.20;99.90
15133;DHT22;7667;51.232;17.110;2024-02-28T13:09:05;6.10;99.90
15133;DHT22;7667;51.232;17.110;2024-02-28T13:11:39;6.10;99.90
15133;DHT22;7667;51.232;17.110;2024-02-28T13:14:07;6.00;99.90
15133;DHT22;7667;51.232;17.110;2024-02-28T13:16:38;5.90;99.90
15133;DHT22;7667;51.232;17.110;2024-02-28T13:19:05;5.90;99.90
15133;DHT22;7667;51.232;17.110;2024-02-28T13:21:33;5.90;99.90
15133;DHT22;7667;51.232;17.110;2024-02-28T13:24:01;5.80;99.90
15133;DHT22;7667;51.232;17.110;2024-02-28T13:26:30;5.90;99.90
15133;DHT22;7667;51.232;17.110;2024-02-28T13:28:57;5.80;99.90
15133;DHT22;7667;51.232;17.110;2024-02-28T13:31:25;5.80;99.90
15133;DHT22;7667;51.232;17.110;2024-02-28T13:33:53;5.80;99.90
15133;DHT22;7667;51.232;17.110;2024-02-28T13:36:20;5.90;99.90
15133;DHT22;7667;51.232;17.110;2024-02-28T13:38:48;5.90;99.90
15133;DHT22;7667;51.232;17.110;2024-02-28T13:41:16;5.80;99.90
15133;DHT22;7667;51.232;17.110;2024-02-28T13:43:44;5.90;99.90
15133;DHT22;7667;51.232;17.110;2024-02-28T13:46:12;5.80;99.90
15133;DHT22;7667;51.232;17.110;2024-02-28T13:48:42;5.80;99.90
15133;DHT22;7667;51.232;17.110;2024-02-28T13:51:10;5.70;99.90
15133;DHT22;7667;51.232;17.110;2024-02-28T13:53:38;5.70;99.90
15133;DHT22;7667;51.232;17.110;2024-02-28T13:56:06;5.60;99.90
15133;DHT22;7667;51.232;17.110;2024-02-28T13:58:34;5.60;99.90
15133;DHT22;7667;51.232;17.110;2024-02-28T14:01:09;5.60;99.90
15133;DHT22;7667;51.232;17.110;2024-02-28T14:03:37;5.60;99.90
15133;DHT22;7667;51.232;17.110;2024-02-28T14:06:09;5.60;99.90
15133;DHT22;7667;51.232;17.110;2024-02-28T14:08:36;5.70;99.90
15133;DHT22;7667;51.232;17.110;2024-02-28T14:11:07;5.60;99.90
15133;DHT22;7667;51.232;17.110;2024-02-28T14:13:35;5.70;99.90
15133;DHT22;7667;51.232;17.110;2024-02-28T14:16:02;5.70;99.90
15133;DHT22;7667;51.232;17.110;2024-02-28T14:18:31;5.60;99.90
15133;DHT22;7667;51.232;17.110;2024-02-28T14:20:58;5.60;99.90
15133;DHT22;7667;51.232;17.110;2024-02-28T14:23:26;5.60;99.90
15133;DHT22;7667;51.232;17.110;2024-02-28T14:25:54;5.50;99.90
15133;DHT22;7667;51.232;17.110;2024-02-28T14:28:21;5.50;99.90
15133;DHT22;7667;51.232;17.110;2024-02-28T14:30:49;5.50;99.90
15133;DHT22;7667;51.232;17.110;2024-02-28T14:33:17;5.50;99.90
15133;DHT22;7667;51.232;17.110;2024-02-28T14:35:44;5.50;99.90
15133;DHT22;7667;51.232;17.110;2024-02-28T14:38:12;5.40;99.90
15133;DHT22;7667;51.232;17.110;2024-02-28T14:40:39;5.50;99.90
15133;DHT22;7667;51.232;17.110;2024-02-28T14:43:08;5.50;99.90
15133;DHT22;7667;51.232;17.110;2024-02-28T14:45:36;5.50;99.90
15133;DHT22;7667;51.232;17.110;2024-02-28T14:48:07;5.50;99.90
15133;DHT22;7667;51.232;17.110;2024-02-28T14:50:35;5.50;99.90
15133;DHT22;7667;51.232;17.110;2024-02-28T14:53:03;5.40;99.90
15133;DHT22;7667;51.232;17.110;2024-02-28T14:55:30;5.40;99.90
15133;DHT22;7667;51.232;17.110;2024-02-28T14:57:58;5.40;99.90
15133;DHT22;7667;51.232;17.110;2024-02-28T15:00:27;5.50;99.90
15133;DHT22;7667;51.232;17.110;2024-02-28T15:02:55;5.50;99.90
15133;DHT22;7667;51.232;17.110;2024-02-28T15:05:23;5.40;99.90
15133;DHT22;7667;51.232;17.110;2024-02-28T15:07:52;5.40;99.90
15133;DHT22;7667;51.232;17.110;2024-02-28T15:10:21;5.40;99.90
15133;DHT22;7667;51.232;17.110;2024-02-28T15:12:49;5.40;99.90
15133;DHT22;7667;51.232;17.110;2024-02-28T15:15:17;5.40;99.90
15133;DHT22;7667;51.232;17.110;2024-02-28T15:17:45;5.40;99.90
15133;DHT22;7667;51.232;17.110;2024-02-28T15:20:12;5.40;99.90
15133;DHT22;7667;51.232;17.110;2024-02-28T15:22:40;5.40;99.90
15133;DHT22;7667;51.232;17.110;2024-02-28T15:25:09;5.40;99.90
15133;DHT22;7667;51.232;17.110;2024-02-28T15:27:38;5.40;99.90
15133;DHT22;7667;51.232;17.110;2024-02-28T15:30:06;5.40;99.90
15133;DHT22;7667;51.232;17.110;2024-02-28T15:32:34;5.30;99.90
15133;DHT22;7667;51.232;17.110;2024-02-28T15:35:08;5.30;99.90
15133;DHT22;7667;51.232;17.110;2024-02-28T15:37:35;5.30;99.90
15133;DHT22;7667;51.232;17.110;2024-02-28T15:40:04;5.30;99.90
15133;DHT22;7667;51.232;17.110;2024-02-28T15:42:34;5.30;99.90
15133;DHT22;7667;51.232;17.110;2024-02-28T15:45:02;5.20;99.90
15133;DHT22;7667;51.232;17.110;2024-02-28T15:47:30;5.20;99.90
15133;DHT22;7667;51.232;17.110;2024-02-28T15:50:02;5.20;99.90
15133;DHT22;7667;51.232;17.110;2024-02-28T15:52:32;5.10;99.90
15133;DHT22;7667;51.232;17.110;2024-02-28T18:21:01;4.60;99.90
15133;DHT22;7667;51.232;17.110;2024-02-28T18:23:29;4.60;99.90
15133;DHT22;7667;51.232;17.110;2024-02-28T18:26:02;4.60;99.90
15133;DHT22;7667;51.232;17.110;2024-02-28T18:28:30;4.60;99.90
15133;DHT22;7667;51.232;17.110;2024-02-28T18:31:04;4.60;99.90
15133;DHT22;7667;51.232;17.110;2024-02-28T18:33:35;4.60;99.90
